^^
Grace C. Lehan Memorial Weather Station Historical Data
Daily Summary for September 1, 2022 Units:  Both    English   Metric
Daily Weekly Monthly Yearly
  High: Low: Average:
Temperature: 42 °F /  5.6 °C 35.4 °F /  1.9 °C 38.4 °F /  3.6 °C
Dew Point: 29.6 °F /  -1.3 °C 23.4 °F /  -4.8 °C 27.6 °F /  -2.4 °C
Humidity: 74% 60% 65%
Wind Speed: 9.1mph /  14.6km/h - 3.2mph /  5.1km/h
Wind Gust: 21mph /  33.8km/h - -
Wind- - WNW
Pressure: 30.06 in /  1017.8 hPa 29.78 in /  1008.4 hPa -
Precipitation: 0.00 in /  0 mm    
 
 
Tabular Data for September 1, 2022
Time Temperature Dew Point Pressure Wind Wind Speed Wind Gust Humidity Rainfall Rate (Hourly) solar
00:04 42 °F /  5.6 °C 29.5 °F /  -1.4 °C 29.78in /  1008.4hPa WNW 6.8mph /  10.9km/h 19mph /  30.6km/h 61% 0.00in /  0mm 0 W/m2
00:09 41.8 °F /  5.4 °C 29.4 °F /  -1.4 °C 29.78in /  1008.4hPa WNW 4.6mph /  7.4km/h 15mph /  24.1km/h 61% 0.00in /  0mm 0 W/m2
00:14 41.6 °F /  5.3 °C 29.5 °F /  -1.4 °C 29.78in /  1008.4hPa WNW 5.3mph /  8.5km/h 15mph /  24.1km/h 61.8% 0.00in /  0mm 0 W/m2
00:19 41.4 °F /  5.2 °C 29.4 °F /  -1.4 °C 29.78in /  1008.4hPa WNW 1.6mph /  2.6km/h 15mph /  24.1km/h 62% 0.00in /  0mm 0 W/m2
00:24 41.2 °F /  5.1 °C 29.3 °F /  -1.5 °C 29.79in /  1008.7hPa WNW 2.7mph /  4.3km/h 15mph /  24.1km/h 62.3% 0.00in /  0mm 0 W/m2
00:29 40.9 °F /  4.9 °C 28.8 °F /  -1.8 °C 29.79in /  1008.7hPa WNW 4.9mph /  7.9km/h 15mph /  24.1km/h 61.7% 0.00in /  0mm 0 W/m2
00:34 40.8 °F /  4.9 °C 28.6 °F /  -1.9 °C 29.79in /  1008.7hPa WNW 4.9mph /  7.9km/h 15mph /  24.1km/h 61.5% 0.00in /  0mm 0 W/m2
00:39 40.7 °F /  4.8 °C 28.5 °F /  -1.9 °C 29.79in /  1008.7hPa WNW 3.2mph /  5.1km/h 9mph /  14.5km/h 61.5% 0.00in /  0mm 0 W/m2
00:44 40.5 °F /  4.7 °C 28.3 °F /  -2.1 °C 29.79in /  1008.7hPa WNW 2mph /  3.2km/h 9mph /  14.5km/h 61.4% 0.00in /  0mm 0 W/m2
00:49 40.3 °F /  4.6 °C 28 °F /  -2.2 °C 29.79in /  1008.7hPa WNW 3.8mph /  6.1km/h 13mph /  20.9km/h 61% 0.00in /  0mm 0 W/m2
00:54 40.2 °F /  4.6 °C 27.9 °F /  -2.3 °C 29.80in /  1009hPa NW 5mph /  8km/h 13mph /  20.9km/h 61% 0.00in /  0mm 0 W/m2
00:59 40.2 °F /  4.6 °C 27.8 °F /  -2.3 °C 29.80in /  1009hPa WNW 1.9mph /  3.1km/h 13mph /  20.9km/h 61% 0.00in /  0mm 0 W/m2
01:04 40.1 °F /  4.5 °C 28.1 °F /  -2.2 °C 29.80in /  1009hPa WNW 0.7mph /  1.1km/h 13mph /  20.9km/h 61.9% 0.00in /  0mm 0 W/m2
01:09 39.9 °F /  4.4 °C 27.9 °F /  -2.3 °C 29.80in /  1009hPa NW 1.6mph /  2.6km/h 10mph /  16.1km/h 62% 0.00in /  0mm 0 W/m2
01:14 39.7 °F /  4.3 °C 27.8 °F /  -2.3 °C 29.81in /  1009.4hPa NW 1mph /  1.6km/h 10mph /  16.1km/h 62% 0.00in /  0mm 0 W/m2
01:19 39.6 °F /  4.2 °C 27.7 °F /  -2.4 °C 29.81in /  1009.4hPa NW 1.4mph /  2.3km/h 10mph /  16.1km/h 62% 0.00in /  0mm 0 W/m2
01:24 39.5 °F /  4.2 °C 27.6 °F /  -2.4 °C 29.81in /  1009.4hPa NW 0.8mph /  1.3km/h 10mph /  16.1km/h 62% 0.00in /  0mm 0 W/m2
01:29 39.5 °F /  4.2 °C 27.5 °F /  -2.5 °C 29.82in /  1009.7hPa NW 2mph /  3.2km/h 10mph /  16.1km/h 62% 0.00in /  0mm 0 W/m2
01:34 39.5 °F /  4.2 °C 27.6 °F /  -2.4 °C 29.82in /  1009.7hPa WNW 1.5mph /  2.4km/h 10mph /  16.1km/h 62% 0.00in /  0mm 0 W/m2
01:39 39.6 °F /  4.2 °C 27.6 °F /  -2.4 °C 29.82in /  1009.7hPa WNW 2.5mph /  4km/h 10mph /  16.1km/h 62% 0.00in /  0mm 0 W/m2
01:44 39.7 °F /  4.3 °C 27.7 °F /  -2.4 °C 29.83in /  1010hPa WNW 1.3mph /  2.1km/h 10mph /  16.1km/h 62% 0.00in /  0mm 0 W/m2
01:49 39.7 °F /  4.3 °C 27.8 °F /  -2.3 °C 29.83in /  1010hPa WNW 3.7mph /  6km/h 13mph /  20.9km/h 62% 0.00in /  0mm 0 W/m2
01:54 39.9 °F /  4.4 °C 27.9 °F /  -2.3 °C 29.83in /  1010hPa WNW 2.9mph /  4.7km/h 13mph /  20.9km/h 62% 0.00in /  0mm 0 W/m2
01:59 40 °F /  4.4 °C 27.6 °F /  -2.4 °C 29.83in /  1010hPa WNW 3mph /  4.8km/h 13mph /  20.9km/h 61% 0.00in /  0mm 0 W/m2
02:04 40 °F /  4.4 °C 27.7 °F /  -2.4 °C 29.84in /  1010.4hPa WNW 1.3mph /  2.1km/h 13mph /  20.9km/h 61% 0.00in /  0mm 0 W/m2
02:09 40.1 °F /  4.5 °C 27.8 °F /  -2.3 °C 29.84in /  1010.4hPa WNW 1.1mph /  1.8km/h 9mph /  14.5km/h 61% 0.00in /  0mm 0 W/m2
02:14 40.1 °F /  4.5 °C 28 °F /  -2.2 °C 29.84in /  1010.4hPa WNW 1.5mph /  2.4km/h 9mph /  14.5km/h 61.7% 0.00in /  0mm 0 W/m2
02:19 40 °F /  4.4 °C 28 °F /  -2.2 °C 29.84in /  1010.4hPa Calm   9mph /  14.5km/h 61.7% 0.00in /  0mm 0 W/m2
02:24 40 °F /  4.4 °C 28.1 °F /  -2.2 °C 29.84in /  1010.4hPa WNW 1.4mph /  2.3km/h 9mph /  14.5km/h 62% 0.00in /  0mm 0 W/m2
02:29 40 °F /  4.4 °C 28.1 °F /  -2.2 °C 29.84in /  1010.4hPa West 2.7mph /  4.3km/h 9mph /  14.5km/h 62% 0.00in /  0mm 0 W/m2
02:34 40 °F /  4.4 °C 28.1 °F /  -2.2 °C 29.84in /  1010.4hPa WNW 3.4mph /  5.5km/h 10mph /  16.1km/h 62% 0.00in /  0mm 0 W/m2
02:39 40.1 °F /  4.5 °C 28.1 °F /  -2.2 °C 29.84in /  1010.4hPa WNW 2.8mph /  4.5km/h 10mph /  16.1km/h 62% 0.00in /  0mm 0 W/m2
03:00 40 °F /  4.4 °C 29.6 °F /  -1.3 °C 29.86in /  1011.1hPa WNW 3mph /  4.8km/h 15mph /  24.1km/h 66% 0.00in /  0mm 0 W/m2
03:30 39.3 °F /  4.1 °C 29.3 °F /  -1.5 °C 29.86in /  1011.1hPa NW 2mph /  3.2km/h 14mph /  22.5km/h 67% 0.00in /  0mm 0 W/m2
04:04 39 °F /  3.9 °C 28.9 °F /  -1.7 °C 29.88in /  1011.7hPa WSW 2.5mph /  4km/h 14mph /  22.5km/h 67% 0.00in /  0mm 0 W/m2
04:09 38.9 °F /  3.8 °C 28.5 °F /  -1.9 °C 29.88in /  1011.7hPa West 0.3mph /  0.5km/h 7mph /  11.3km/h 66% 0.00in /  0mm 0 W/m2
04:14 38.9 °F /  3.8 °C 28.5 °F /  -1.9 °C 29.89in /  1012.1hPa WNW 0.4mph /  0.6km/h 7mph /  11.3km/h 66% 0.00in /  0mm 0 W/m2
04:19 38.9 °F /  3.8 °C 28.4 °F /  -2 °C 29.89in /  1012.1hPa West 1.9mph /  3.1km/h 7mph /  11.3km/h 65.7% 0.00in /  0mm 0 W/m2
04:24 38.9 °F /  3.8 °C 28.2 °F /  -2.1 °C 29.90in /  1012.4hPa West 2.8mph /  4.5km/h 10mph /  16.1km/h 65% 0.00in /  0mm 0 W/m2
04:29 38.9 °F /  3.8 °C 28.2 °F /  -2.1 °C 29.90in /  1012.4hPa WNW 3.7mph /  6km/h 10mph /  16.1km/h 65% 0.00in /  0mm 0 W/m2
04:34 38.9 °F /  3.8 °C 28.1 °F /  -2.2 °C 29.91in /  1012.8hPa West 2mph /  3.2km/h 10mph /  16.1km/h 65% 0.00in /  0mm 0 W/m2
04:39 38.8 °F /  3.8 °C 28.1 °F /  -2.2 °C 29.91in /  1012.8hPa West 0.6mph /  1km/h 6mph /  9.7km/h 65% 0.00in /  0mm 0 W/m2
04:44 38.7 °F /  3.7 °C 28.3 °F /  -2.1 °C 29.92in /  1013.1hPa WNW 3.2mph /  5.1km/h 10mph /  16.1km/h 66% 0.00in /  0mm 0 W/m2
04:49 38.5 °F /  3.6 °C 28.2 °F /  -2.1 °C 29.92in /  1013.1hPa WNW 3.9mph /  6.3km/h 13mph /  20.9km/h 66% 0.00in /  0mm 0 W/m2
04:54 38.4 °F /  3.6 °C 28.1 °F /  -2.2 °C 29.92in /  1013.1hPa WNW 4.6mph /  7.4km/h 19mph /  30.6km/h 66.1% 0.00in /  0mm 0 W/m2
04:59 38.3 °F /  3.5 °C 28 °F /  -2.2 °C 29.93in /  1013.4hPa NW 6.2mph /  10km/h 19mph /  30.6km/h 66.1% 0.00in /  0mm 0 W/m2
05:04 38.2 °F /  3.4 °C 28.1 °F /  -2.2 °C 29.93in /  1013.4hPa NW 7.5mph /  12.1km/h 19mph /  30.6km/h 66.5% 0.00in /  0mm 0 W/m2
05:09 38.1 °F /  3.4 °C 28.1 °F /  -2.2 °C 29.94in /  1013.8hPa NW 4.6mph /  7.4km/h 16mph /  25.7km/h 67% 0.00in /  0mm 0 W/m2
05:14 37.9 °F /  3.3 °C 28 °F /  -2.2 °C 29.94in /  1013.8hPa NW 3.5mph /  5.6km/h 16mph /  25.7km/h 67.3% 0.00in /  0mm 0 W/m2
05:19 37.7 °F /  3.2 °C 28.1 °F /  -2.2 °C 29.95in /  1014.1hPa NW 3.7mph /  6km/h 16mph /  25.7km/h 68% 0.00in /  0mm 0 W/m2
05:24 37.5 °F /  3.1 °C 28.2 °F /  -2.1 °C 29.95in /  1014.1hPa NW 3.9mph /  6.3km/h 16mph /  25.7km/h 68.6% 0.00in /  0mm 0 W/m2
05:29 37.4 °F /  3 °C 28.2 °F /  -2.1 °C 29.96in /  1014.4hPa NW 3.6mph /  5.8km/h 16mph /  25.7km/h 69.1% 0.00in /  0mm 0 W/m2
05:34 37.4 °F /  3 °C 28.4 °F /  -2 °C 29.97in /  1014.8hPa WNW 9.1mph /  14.6km/h 18mph /  29km/h 69.5% 0.00in /  0mm 0 W/m2
05:39 37.3 °F /  2.9 °C 28.5 °F /  -1.9 °C 29.97in /  1014.8hPa WNW 5.7mph /  9.2km/h 18mph /  29km/h 70% 0.00in /  0mm 0 W/m2
05:44 37.3 °F /  2.9 °C 28.4 °F /  -2 °C 29.97in /  1014.8hPa NW 3mph /  4.8km/h 18mph /  29km/h 70% 0.00in /  0mm 0 W/m2
05:49 37.1 °F /  2.8 °C 28.5 °F /  -1.9 °C 29.98in /  1015.1hPa WNW 5.3mph /  8.5km/h 18mph /  29km/h 70.8% 0.00in /  0mm 0 W/m2
05:54 36.8 °F /  2.7 °C 28.3 °F /  -2.1 °C 29.98in /  1015.1hPa WNW 6.1mph /  9.8km/h 19mph /  30.6km/h 71% 0.00in /  0mm 0 W/m2
05:59 36.5 °F /  2.5 °C 28.4 °F /  -2 °C 29.99in /  1015.5hPa WNW 7.4mph /  11.9km/h 19mph /  30.6km/h 72.3% 0.00in /  0mm 0 W/m2
06:04 36.2 °F /  2.3 °C 28.1 °F /  -2.2 °C 29.99in /  1015.5hPa NW 5.2mph /  8.4km/h 19mph /  30.6km/h 72.1% 0.00in /  0mm 0 W/m2
06:09 36.1 °F /  2.3 °C 28.2 °F /  -2.1 °C 29.99in /  1015.5hPa WNW 5.9mph /  9.5km/h 14mph /  22.5km/h 72.8% 0.00in /  0mm 0 W/m2
06:14 35.9 °F /  2.2 °C 28.1 °F /  -2.2 °C 29.99in /  1015.5hPa WNW 7.6mph /  12.2km/h 15mph /  24.1km/h 73% 0.00in /  0mm 0 W/m2
06:19 35.9 °F /  2.2 °C 28.3 °F /  -2.1 °C 30.00in /  1015.8hPa West 3.3mph /  5.3km/h 15mph /  24.1km/h 73.7% 0.00in /  0mm 0 W/m2
06:24 35.8 °F /  2.1 °C 28.3 °F /  -2.1 °C 30.00in /  1015.8hPa West 3.1mph /  5km/h 15mph /  24.1km/h 74% 0.00in /  0mm 0 W/m2
06:29 35.8 °F /  2.1 °C 28.3 °F /  -2.1 °C 30.00in /  1015.8hPa West 2.2mph /  3.5km/h 15mph /  24.1km/h 74% 0.00in /  0mm 0 W/m2
06:34 35.7 °F /  2.1 °C 27.8 °F /  -2.3 °C 30.00in /  1015.8hPa West 3.8mph /  6.1km/h 15mph /  24.1km/h 72.6% 0.00in /  0mm 0 W/m2
06:39 35.7 °F /  2.1 °C 27.6 °F /  -2.4 °C 30.01in /  1016.1hPa WNW 1mph /  1.6km/h 11mph /  17.7km/h 72.3% 0.00in /  0mm 0 W/m2
06:44 35.6 °F /  2 °C 27.5 °F /  -2.5 °C 30.01in /  1016.1hPa WNW 2.5mph /  4km/h 11mph /  17.7km/h 72.2% 0.00in /  0mm 0 W/m2
06:49 35.4 °F /  1.9 °C 26.8 °F /  -2.9 °C 30.01in /  1016.1hPa WNW 6.5mph /  10.5km/h 15mph /  24.1km/h 70.6% 0.00in /  0mm 0 W/m2
06:54 35.4 °F /  1.9 °C 26.2 °F /  -3.2 °C 30.02in /  1016.5hPa WNW 4.2mph /  6.8km/h 15mph /  24.1km/h 68.9% 0.00in /  0mm 0 W/m2
06:59 35.4 °F /  1.9 °C 25.8 °F /  -3.4 °C 30.02in /  1016.5hPa WNW 2.2mph /  3.5km/h 15mph /  24.1km/h 67.7% 0.00in /  0mm 0 W/m2
07:04 35.4 °F /  1.9 °C 25.3 °F /  -3.7 °C 30.01in /  1016.1hPa West 2.3mph /  3.7km/h 17mph /  27.4km/h 66.2% 0.00in /  0mm 5 W/m2
07:09 35.5 °F /  1.9 °C 24.7 °F /  -4.1 °C 30.02in /  1016.5hPa WNW 7.5mph /  12.1km/h 17mph /  27.4km/h 64.5% 0.00in /  0mm 9 W/m2
07:14 35.6 °F /  2 °C 24.6 °F /  -4.1 °C 30.02in /  1016.5hPa WNW 3.5mph /  5.6km/h 17mph /  27.4km/h 64% 0.00in /  0mm 12 W/m2
07:19 35.6 °F /  2 °C 24.3 °F /  -4.3 °C 30.02in /  1016.5hPa West 7mph /  11.3km/h 21mph /  33.8km/h 63.1% 0.00in /  0mm 16 W/m2
07:24 35.8 °F /  2.1 °C 23.5 °F /  -4.7 °C 30.03in /  1016.8hPa West 4.9mph /  7.9km/h 21mph /  33.8km/h 60.5% 0.00in /  0mm 23 W/m2
07:29 35.9 °F /  2.2 °C 23.4 °F /  -4.8 °C 30.03in /  1016.8hPa West 2.9mph /  4.7km/h 21mph /  33.8km/h 60% 0.00in /  0mm 37 W/m2
07:34 36 °F /  2.2 °C 23.8 °F /  -4.6 °C 30.03in /  1016.8hPa West 1.8mph /  2.9km/h 21mph /  33.8km/h 61% 0.00in /  0mm 72 W/m2
07:39 36.3 °F /  2.4 °C 24.2 °F /  -4.3 °C 30.03in /  1016.8hPa West 0.1mph /  0.2km/h 9mph /  14.5km/h 61.1% 0.00in /  0mm 81 W/m2
07:44 36.7 °F /  2.6 °C 25 °F /  -3.9 °C 30.03in /  1016.8hPa West 0.1mph /  0.2km/h 9mph /  14.5km/h 62.2% 0.00in /  0mm 84 W/m2
07:49 37.3 °F /  2.9 °C 25.8 °F /  -3.4 °C 30.04in /  1017.2hPa West 2.8mph /  4.5km/h 9mph /  14.5km/h 63% 0.00in /  0mm 91 W/m2
07:54 37.6 °F /  3.1 °C 26.2 °F /  -3.2 °C 30.04in /  1017.2hPa WSW 2.7mph /  4.3km/h 10mph /  16.1km/h 63% 0.00in /  0mm 88 W/m2
07:59 37.9 °F /  3.3 °C 26.6 °F /  -3 °C 30.04in /  1017.2hPa West 2.4mph /  3.9km/h 10mph /  16.1km/h 63.4% 0.00in /  0mm 128 W/m2
08:04 38.2 °F /  3.4 °C 26.7 °F /  -2.9 °C 30.04in /  1017.2hPa WSW 1.8mph /  2.9km/h 6mph /  9.7km/h 63% 0.00in /  0mm 113 W/m2
08:09 38.2 °F /  3.4 °C 26.8 °F /  -2.9 °C 30.05in /  1017.5hPa WSW 3.1mph /  5km/h 14mph /  22.5km/h 63% 0.00in /  0mm 146 W/m2
08:14 38.4 °F /  3.6 °C 26.9 °F /  -2.8 °C 30.05in /  1017.5hPa WSW 3.4mph /  5.5km/h 14mph /  22.5km/h 62.8% 0.00in /  0mm 178 W/m2
08:19 38.7 °F /  3.7 °C 27.1 °F /  -2.7 °C 30.06in /  1017.8hPa West 0.7mph /  1.1km/h 14mph /  22.5km/h 62.9% 0.00in /  0mm 192 W/m2
08:24 39.1 °F /  3.9 °C 27.6 °F /  -2.4 °C 30.06in /  1017.8hPa WSW 0.8mph /  1.3km/h 14mph /  22.5km/h 63% 0.00in /  0mm 188 W/m2
08:29 39.5 °F /  4.2 °C 27.5 °F /  -2.5 °C 30.06in /  1017.8hPa West 3.1mph /  5km/h 14mph /  22.5km/h 61.8% 0.00in /  0mm 179 W/m2
08:32 39.6 °F /  4.2 °C 27 °F /  -2.8 °C 30.06in /  1017.8hPa West 5.1mph /  8.2km/h 14mph /  22.5km/h 60.3% 0.00in /  0mm 204 W/m2
Hartford County Weather
Compliments of Weather Underground - 4 mb